sensor_id;sensor_type;location;lat;lon;timestamp;P1;durP1;ratioP1;P2;durP2;ratioP2
15130;SDS011;7666;50.920;4.628;2022-12-15T00:01:43;44.57;;;27.63;;
15130;SDS011;7666;50.920;4.628;2022-12-15T00:04:47;39.63;;;27.47;;
15130;SDS011;7666;50.920;4.628;2022-12-15T00:07:52;35.57;;;26.13;;
15130;SDS011;7666;50.920;4.628;2022-12-15T00:10:57;33.97;;;24.87;;
15130;SDS011;7666;50.920;4.628;2022-12-15T00:14:04;33.47;;;23.93;;
15130;SDS011;7666;50.920;4.628;2022-12-15T00:17:08;36.60;;;25.63;;
15130;SDS011;7666;50.920;4.628;2022-12-15T00:20:13;34.87;;;24.50;;
15130;SDS011;7666;50.920;4.628;2022-12-15T00:23:18;31.33;;;22.97;;
15130;SDS011;7666;50.920;4.628;2022-12-15T00:26:22;35.80;;;24.70;;
15130;SDS011;7666;50.920;4.628;2022-12-15T00:29:27;34.47;;;24.10;;
15130;SDS011;7666;50.920;4.628;2022-12-15T00:32:31;38.00;;;24.97;;
15130;SDS011;7666;50.920;4.628;2022-12-15T00:35:36;37.43;;;24.57;;
15130;SDS011;7666;50.920;4.628;2022-12-15T00:38:41;34.87;;;25.53;;
15130;SDS011;7666;50.920;4.628;2022-12-15T00:41:29;33.43;;;25.50;;
15130;SDS011;7666;50.920;4.628;2022-12-15T00:44:15;33.70;;;24.13;;
15130;SDS011;7666;50.920;4.628;2022-12-15T00:47:02;34.87;;;23.80;;
15130;SDS011;7666;50.920;4.628;2022-12-15T00:49:48;33.87;;;24.23;;
15130;SDS011;7666;50.920;4.628;2022-12-15T00:52:53;31.27;;;23.37;;
15130;SDS011;7666;50.920;4.628;2022-12-15T00:55:58;33.63;;;23.73;;
15130;SDS011;7666;50.920;4.628;2022-12-15T00:59:02;37.27;;;24.70;;
15130;SDS011;7666;50.920;4.628;2022-12-15T01:02:06;33.57;;;24.70;;
15130;SDS011;7666;50.920;4.628;2022-12-15T01:05:11;32.53;;;23.80;;
15130;SDS011;7666;50.920;4.628;2022-12-15T01:08:15;34.20;;;23.37;;
15130;SDS011;7666;50.920;4.628;2022-12-15T01:11:20;30.77;;;23.67;;
15130;SDS011;7666;50.920;4.628;2022-12-15T01:14:24;34.23;;;24.13;;
15130;SDS011;7666;50.920;4.628;2022-12-15T01:17:30;34.10;;;24.50;;
15130;SDS011;7666;50.920;4.628;2022-12-15T01:20:34;31.13;;;22.47;;
15130;SDS011;7666;50.920;4.628;2022-12-15T01:23:20;33.03;;;22.87;;
15130;SDS011;7666;50.920;4.628;2022-12-15T01:26:07;34.47;;;24.13;;
15130;SDS011;7666;50.920;4.628;2022-12-15T01:28:53;33.23;;;23.57;;
15130;SDS011;7666;50.920;4.628;2022-12-15T01:31:38;30.73;;;23.07;;
15130;SDS011;7666;50.920;4.628;2022-12-15T01:34:24;33.30;;;24.40;;
15130;SDS011;7666;50.920;4.628;2022-12-15T01:37:10;34.27;;;24.03;;
15130;SDS011;7666;50.920;4.628;2022-12-15T01:39:56;31.40;;;22.83;;
15130;SDS011;7666;50.920;4.628;2022-12-15T01:43:13;31.07;;;24.00;;
15130;SDS011;7666;50.920;4.628;2022-12-15T01:46:08;32.20;;;23.03;;
15130;SDS011;7666;50.920;4.628;2022-12-15T01:48:58;32.23;;;22.70;;
15130;SDS011;7666;50.920;4.628;2022-12-15T01:52:00;33.60;;;23.23;;
15130;SDS011;7666;50.920;4.628;2022-12-15T01:54:51;30.17;;;22.83;;
15130;SDS011;7666;50.920;4.628;2022-12-15T01:57:41;31.43;;;22.23;;
15130;SDS011;7666;50.920;4.628;2022-12-15T02:00:27;30.70;;;21.33;;
15130;SDS011;7666;50.920;4.628;2022-12-15T02:03:14;33.40;;;23.47;;
15130;SDS011;7666;50.920;4.628;2022-12-15T02:06:00;31.43;;;22.57;;
15130;SDS011;7666;50.920;4.628;2022-12-15T02:08:48;31.83;;;22.27;;
15130;SDS011;7666;50.920;4.628;2022-12-15T02:14:52;34.80;;;23.50;;
15130;SDS011;7666;50.920;4.628;2022-12-15T02:20:49;30.20;;;21.40;;
15130;SDS011;7666;50.920;4.628;2022-12-15T02:27:14;31.83;;;21.93;;
15130;SDS011;7666;50.920;4.628;2022-12-15T02:30:20;33.53;;;22.80;;
15130;SDS011;7666;50.920;4.628;2022-12-15T02:36:14;30.63;;;22.10;;
15130;SDS011;7666;50.920;4.628;2022-12-15T02:39:05;29.07;;;22.03;;
15130;SDS011;7666;50.920;4.628;2022-12-15T02:41:51;27.10;;;20.67;;
15130;SDS011;7666;50.920;4.628;2022-12-15T02:44:46;30.03;;;21.07;;
15130;SDS011;7666;50.920;4.628;2022-12-15T02:47:59;30.37;;;22.10;;
15130;SDS011;7666;50.920;4.628;2022-12-15T02:51:03;29.00;;;21.13;;
15130;SDS011;7666;50.920;4.628;2022-12-15T02:54:34;28.27;;;20.27;;
15130;SDS011;7666;50.920;4.628;2022-12-15T03:01:08;30.93;;;22.30;;
15130;SDS011;7666;50.920;4.628;2022-12-15T03:03:59;32.20;;;22.07;;
15130;SDS011;7666;50.920;4.628;2022-12-15T03:06:54;27.33;;;21.10;;
15130;SDS011;7666;50.920;4.628;2022-12-15T03:09:41;30.07;;;21.87;;
15130;SDS011;7666;50.920;4.628;2022-12-15T03:12:27;32.37;;;20.50;;
15130;SDS011;7666;50.920;4.628;2022-12-15T03:15:13;29.30;;;21.27;;
15130;SDS011;7666;50.920;4.628;2022-12-15T03:17:59;31.53;;;21.93;;
15130;SDS011;7666;50.920;4.628;2022-12-15T03:20:45;30.67;;;22.13;;
15130;SDS011;7666;50.920;4.628;2022-12-15T03:23:31;28.77;;;20.67;;
15130;SDS011;7666;50.920;4.628;2022-12-15T03:26:18;28.30;;;20.10;;
15130;SDS011;7666;50.920;4.628;2022-12-15T03:29:04;31.03;;;21.17;;
15130;SDS011;7666;50.920;4.628;2022-12-15T03:31:50;28.57;;;20.50;;
15130;SDS011;7666;50.920;4.628;2022-12-15T03:34:36;31.70;;;21.97;;
15130;SDS011;7666;50.920;4.628;2022-12-15T03:37:22;30.23;;;21.37;;
15130;SDS011;7666;50.920;4.628;2022-12-15T03:40:08;31.60;;;22.57;;
15130;SDS011;7666;50.920;4.628;2022-12-15T03:42:55;30.37;;;22.90;;
15130;SDS011;7666;50.920;4.628;2022-12-15T03:45:41;33.50;;;23.63;;
15130;SDS011;7666;50.920;4.628;2022-12-15T03:48:27;32.83;;;23.20;;
15130;SDS011;7666;50.920;4.628;2022-12-15T03:51:13;31.53;;;23.20;;
15130;SDS011;7666;50.920;4.628;2022-12-15T03:53:58;35.37;;;24.50;;
15130;SDS011;7666;50.920;4.628;2022-12-15T03:56:44;33.73;;;23.60;;
15130;SDS011;7666;50.920;4.628;2022-12-15T03:59:30;34.17;;;24.03;;
15130;SDS011;7666;50.920;4.628;2022-12-15T04:02:16;33.47;;;23.40;;
15130;SDS011;7666;50.920;4.628;2022-12-15T04:05:02;36.93;;;25.40;;
15130;SDS011;7666;50.920;4.628;2022-12-15T04:07:48;36.00;;;24.80;;
15130;SDS011;7666;50.920;4.628;2022-12-15T04:10:34;32.07;;;23.53;;
15130;SDS011;7666;50.920;4.628;2022-12-15T04:13:20;39.60;;;27.40;;
15130;SDS011;7666;50.920;4.628;2022-12-15T04:16:06;40.37;;;26.50;;
15130;SDS011;7666;50.920;4.628;2022-12-15T04:18:52;36.40;;;25.43;;
15130;SDS011;7666;50.920;4.628;2022-12-15T04:21:58;36.27;;;25.03;;
15130;SDS011;7666;50.920;4.628;2022-12-15T04:24:47;38.07;;;26.20;;
15130;SDS011;7666;50.920;4.628;2022-12-15T04:27:52;36.87;;;26.00;;
15130;SDS011;7666;50.920;4.628;2022-12-15T04:31:01;38.43;;;27.17;;
15130;SDS011;7666;50.920;4.628;2022-12-15T04:34:21;35.17;;;24.80;;
15130;SDS011;7666;50.920;4.628;2022-12-15T04:37:27;35.37;;;24.73;;
15130;SDS011;7666;50.920;4.628;2022-12-15T04:40:31;36.70;;;25.70;;
15130;SDS011;7666;50.920;4.628;2022-12-15T04:43:36;36.07;;;24.87;;
15130;SDS011;7666;50.920;4.628;2022-12-15T04:46:40;39.10;;;26.00;;
15130;SDS011;7666;50.920;4.628;2022-12-15T04:49:45;34.23;;;25.13;;
15130;SDS011;7666;50.920;4.628;2022-12-15T04:52:49;34.83;;;25.27;;
15130;SDS011;7666;50.920;4.628;2022-12-15T04:55:54;34.97;;;24.57;;
15130;SDS011;7666;50.920;4.628;2022-12-15T04:58:59;35.10;;;25.33;;
15130;SDS011;7666;50.920;4.628;2022-12-15T05:02:04;39.87;;;26.73;;
15130;SDS011;7666;50.920;4.628;2022-12-15T05:05:09;34.33;;;24.97;;
15130;SDS011;7666;50.920;4.628;2022-12-15T05:08:13;38.83;;;26.50;;
15130;SDS011;7666;50.920;4.628;2022-12-15T05:11:17;36.70;;;25.67;;
15130;SDS011;7666;50.920;4.628;2022-12-15T05:14:22;35.33;;;25.60;;
15130;SDS011;7666;50.920;4.628;2022-12-15T05:17:26;38.37;;;25.57;;
15130;SDS011;7666;50.920;4.628;2022-12-15T05:20:32;36.70;;;24.97;;
15130;SDS011;7666;50.920;4.628;2022-12-15T05:23:37;34.43;;;25.57;;
15130;SDS011;7666;50.920;4.628;2022-12-15T05:26:41;34.90;;;25.83;;
15130;SDS011;7666;50.920;4.628;2022-12-15T05:29:45;38.83;;;26.63;;
15130;SDS011;7666;50.920;4.628;2022-12-15T05:32:50;36.23;;;25.03;;
15130;SDS011;7666;50.920;4.628;2022-12-15T05:35:36;39.13;;;26.27;;
15130;SDS011;7666;50.920;4.628;2022-12-15T05:38:22;35.67;;;25.07;;
15130;SDS011;7666;50.920;4.628;2022-12-15T05:41:08;37.57;;;25.60;;
15130;SDS011;7666;50.920;4.628;2022-12-15T05:43:54;35.83;;;26.00;;
15130;SDS011;7666;50.920;4.628;2022-12-15T05:46:39;38.17;;;26.40;;
15130;SDS011;7666;50.920;4.628;2022-12-15T05:49:25;35.83;;;26.03;;
15130;SDS011;7666;50.920;4.628;2022-12-15T05:52:11;36.17;;;26.30;;
15130;SDS011;7666;50.920;4.628;2022-12-15T05:54:57;37.47;;;26.70;;
15130;SDS011;7666;50.920;4.628;2022-12-15T05:57:49;37.13;;;26.07;;
15130;SDS011;7666;50.920;4.628;2022-12-15T06:00:36;35.73;;;27.47;;
15130;SDS011;7666;50.920;4.628;2022-12-15T06:03:22;34.30;;;25.93;;
15130;SDS011;7666;50.920;4.628;2022-12-15T06:06:09;39.63;;;26.83;;
15130;SDS011;7666;50.920;4.628;2022-12-15T06:08:56;37.10;;;26.30;;
15130;SDS011;7666;50.920;4.628;2022-12-15T06:11:42;38.17;;;26.60;;
15130;SDS011;7666;50.920;4.628;2022-12-15T06:14:29;38.00;;;26.50;;
15130;SDS011;7666;50.920;4.628;2022-12-15T06:17:15;40.07;;;26.17;;
15130;SDS011;7666;50.920;4.628;2022-12-15T06:20:01;43.03;;;28.20;;
15130;SDS011;7666;50.920;4.628;2022-12-15T06:22:48;41.23;;;27.27;;
15130;SDS011;7666;50.920;4.628;2022-12-15T06:25:34;36.10;;;26.27;;
15130;SDS011;7666;50.920;4.628;2022-12-15T06:28:20;39.07;;;27.27;;
15130;SDS011;7666;50.920;4.628;2022-12-15T06:31:09;36.93;;;26.23;;
15130;SDS011;7666;50.920;4.628;2022-12-15T06:33:56;38.87;;;27.17;;
15130;SDS011;7666;50.920;4.628;2022-12-15T06:36:42;39.30;;;27.47;;
15130;SDS011;7666;50.920;4.628;2022-12-15T06:39:29;39.40;;;27.07;;
15130;SDS011;7666;50.920;4.628;2022-12-15T06:42:15;40.70;;;27.97;;
15130;SDS011;7666;50.920;4.628;2022-12-15T06:45:01;37.23;;;27.30;;
15130;SDS011;7666;50.920;4.628;2022-12-15T06:47:48;39.67;;;27.47;;
15130;SDS011;7666;50.920;4.628;2022-12-15T06:50:34;41.87;;;29.70;;
15130;SDS011;7666;50.920;4.628;2022-12-15T06:53:21;36.50;;;26.73;;
15130;SDS011;7666;50.920;4.628;2022-12-15T06:56:12;40.37;;;29.00;;
15130;SDS011;7666;50.920;4.628;2022-12-15T06:59:03;41.67;;;28.53;;
15130;SDS011;7666;50.920;4.628;2022-12-15T07:01:50;47.23;;;30.63;;
15130;SDS011;7666;50.920;4.628;2022-12-15T07:04:36;40.20;;;29.37;;
15130;SDS011;7666;50.920;4.628;2022-12-15T07:07:22;38.73;;;27.77;;
15130;SDS011;7666;50.920;4.628;2022-12-15T07:10:08;36.97;;;27.57;;
15130;SDS011;7666;50.920;4.628;2022-12-15T07:12:55;41.07;;;28.30;;
15130;SDS011;7666;50.920;4.628;2022-12-15T07:15:42;41.50;;;28.63;;
15130;SDS011;7666;50.920;4.628;2022-12-15T07:18:28;41.70;;;28.77;;
15130;SDS011;7666;50.920;4.628;2022-12-15T07:21:15;40.67;;;27.97;;
15130;SDS011;7666;50.920;4.628;2022-12-15T07:24:02;42.00;;;28.60;;
15130;SDS011;7666;50.920;4.628;2022-12-15T07:26:48;39.47;;;27.97;;
15130;SDS011;7666;50.920;4.628;2022-12-15T07:29:34;39.30;;;28.00;;
15130;SDS011;7666;50.920;4.628;2022-12-15T07:32:20;39.20;;;27.57;;
15130;SDS011;7666;50.920;4.628;2022-12-15T07:35:06;39.83;;;27.13;;
15130;SDS011;7666;50.920;4.628;2022-12-15T07:37:52;37.23;;;27.47;;
15130;SDS011;7666;50.920;4.628;2022-12-15T07:40:38;38.07;;;27.53;;
15130;SDS011;7666;50.920;4.628;2022-12-15T07:43:24;36.63;;;26.60;;
15130;SDS011;7666;50.920;4.628;2022-12-15T07:46:11;43.10;;;27.80;;
15130;SDS011;7666;50.920;4.628;2022-12-15T07:48:57;39.37;;;28.27;;
15130;SDS011;7666;50.920;4.628;2022-12-15T07:51:43;39.73;;;28.47;;
15130;SDS011;7666;50.920;4.628;2022-12-15T07:54:29;37.40;;;27.47;;
15130;SDS011;7666;50.920;4.628;2022-12-15T07:57:15;43.70;;;28.30;;
15130;SDS011;7666;50.920;4.628;2022-12-15T08:00:02;41.37;;;27.37;;
15130;SDS011;7666;50.920;4.628;2022-12-15T08:02:50;37.33;;;28.03;;
15130;SDS011;7666;50.920;4.628;2022-12-15T08:05:36;39.60;;;28.13;;
15130;SDS011;7666;50.920;4.628;2022-12-15T08:08:22;38.47;;;27.90;;
15130;SDS011;7666;50.920;4.628;2022-12-15T08:11:09;40.33;;;28.00;;
15130;SDS011;7666;50.920;4.628;2022-12-15T08:13:56;40.87;;;27.77;;
15130;SDS011;7666;50.920;4.628;2022-12-15T08:16:42;40.27;;;28.63;;
15130;SDS011;7666;50.920;4.628;2022-12-15T08:19:29;41.73;;;27.93;;
15130;SDS011;7666;50.920;4.628;2022-12-15T08:22:15;37.10;;;27.20;;
15130;SDS011;7666;50.920;4.628;2022-12-15T08:25:01;40.13;;;28.33;;
15130;SDS011;7666;50.920;4.628;2022-12-15T08:27:50;36.97;;;27.87;;
15130;SDS011;7666;50.920;4.628;2022-12-15T08:30:36;42.10;;;29.60;;
15130;SDS011;7666;50.920;4.628;2022-12-15T08:33:22;38.90;;;27.93;;
15130;SDS011;7666;50.920;4.628;2022-12-15T08:36:09;42.57;;;29.30;;
15130;SDS011;7666;50.920;4.628;2022-12-15T08:38:58;38.73;;;27.80;;
15130;SDS011;7666;50.920;4.628;2022-12-15T08:41:45;41.77;;;28.27;;
15130;SDS011;7666;50.920;4.628;2022-12-15T08:44:31;40.07;;;26.23;;
15130;SDS011;7666;50.920;4.628;2022-12-15T08:47:17;39.20;;;26.07;;
15130;SDS011;7666;50.920;4.628;2022-12-15T08:50:04;41.70;;;27.20;;
15130;SDS011;7666;50.920;4.628;2022-12-15T08:52:51;42.07;;;26.53;;
15130;SDS011;7666;50.920;4.628;2022-12-15T08:55:37;35.33;;;25.43;;
15130;SDS011;7666;50.920;4.628;2022-12-15T08:58:23;36.17;;;24.97;;
15130;SDS011;7666;50.920;4.628;2022-12-15T09:01:11;36.47;;;26.47;;
15130;SDS011;7666;50.920;4.628;2022-12-15T09:04:02;37.77;;;26.13;;
15130;SDS011;7666;50.920;4.628;2022-12-15T09:06:48;37.23;;;26.37;;
15130;SDS011;7666;50.920;4.628;2022-12-15T09:09:34;39.07;;;27.13;;
15130;SDS011;7666;50.920;4.628;2022-12-15T09:12:20;37.50;;;26.60;;
15130;SDS011;7666;50.920;4.628;2022-12-15T09:15:06;38.53;;;27.07;;
15130;SDS011;7666;50.920;4.628;2022-12-15T09:17:52;39.33;;;27.60;;
15130;SDS011;7666;50.920;4.628;2022-12-15T09:20:38;40.03;;;28.20;;
15130;SDS011;7666;50.920;4.628;2022-12-15T09:23:24;43.93;;;30.40;;
15130;SDS011;7666;50.920;4.628;2022-12-15T09:26:11;45.13;;;31.33;;
15130;SDS011;7666;50.920;4.628;2022-12-15T09:28:58;44.90;;;32.00;;
15130;SDS011;7666;50.920;4.628;2022-12-15T09:31:46;48.63;;;32.23;;
15130;SDS011;7666;50.920;4.628;2022-12-15T09:34:32;44.93;;;29.93;;
15130;SDS011;7666;50.920;4.628;2022-12-15T09:37:18;47.17;;;31.03;;
15130;SDS011;7666;50.920;4.628;2022-12-15T09:40:05;47.40;;;31.37;;
15130;SDS011;7666;50.920;4.628;2022-12-15T09:42:52;48.67;;;31.97;;
15130;SDS011;7666;50.920;4.628;2022-12-15T09:45:40;42.47;;;29.80;;
15130;SDS011;7666;50.920;4.628;2022-12-15T09:48:39;45.77;;;29.33;;
15130;SDS011;7666;50.920;4.628;2022-12-15T09:51:32;43.87;;;30.60;;
15130;SDS011;7666;50.920;4.628;2022-12-15T09:54:24;40.70;;;28.77;;
15130;SDS011;7666;50.920;4.628;2022-12-15T10:08:53;43.60;;;30.03;;
15130;SDS011;7666;50.920;4.628;2022-12-15T10:11:45;41.30;;;28.57;;
15130;SDS011;7666;50.920;4.628;2022-12-15T10:18:45;40.60;;;28.80;;
15130;SDS011;7666;50.920;4.628;2022-12-15T10:21:13;39.97;;;27.43;;
15130;SDS011;7666;50.920;4.628;2022-12-15T10:24:13;42.13;;;29.37;;
15130;SDS011;7666;50.920;4.628;2022-12-15T10:27:12;41.60;;;29.83;;
15130;SDS011;7666;50.920;4.628;2022-12-15T10:30:18;40.27;;;29.03;;
15130;SDS011;7666;50.920;4.628;2022-12-15T10:36:10;43.10;;;28.43;;
15130;SDS011;7666;50.920;4.628;2022-12-15T10:38:59;43.37;;;29.53;;
15130;SDS011;7666;50.920;4.628;2022-12-15T10:41:45;41.43;;;28.83;;
15130;SDS011;7666;50.920;4.628;2022-12-15T10:44:52;38.57;;;27.73;;
15130;SDS011;7666;50.920;4.628;2022-12-15T10:47:40;39.37;;;28.93;;
15130;SDS011;7666;50.920;4.628;2022-12-15T10:50:26;39.33;;;27.43;;
15130;SDS011;7666;50.920;4.628;2022-12-15T10:53:32;43.43;;;28.77;;
15130;SDS011;7666;50.920;4.628;2022-12-15T10:56:48;40.17;;;26.63;;
15130;SDS011;7666;50.920;4.628;2022-12-15T10:59:44;41.47;;;28.63;;
15130;SDS011;7666;50.920;4.628;2022-12-15T11:02:33;37.17;;;26.90;;
15130;SDS011;7666;50.920;4.628;2022-12-15T11:05:20;37.20;;;27.40;;
15130;SDS011;7666;50.920;4.628;2022-12-15T11:08:13;39.80;;;26.67;;
15130;SDS011;7666;50.920;4.628;2022-12-15T11:11:00;35.60;;;26.90;;
15130;SDS011;7666;50.920;4.628;2022-12-15T11:14:09;40.10;;;27.70;;
15130;SDS011;7666;50.920;4.628;2022-12-15T11:17:00;36.73;;;26.80;;
15130;SDS011;7666;50.920;4.628;2022-12-15T11:19:55;31.90;;;24.60;;
15130;SDS011;7666;50.920;4.628;2022-12-15T11:22:52;33.57;;;25.90;;
15130;SDS011;7666;50.920;4.628;2022-12-15T11:25:46;31.20;;;24.40;;
15130;SDS011;7666;50.920;4.628;2022-12-15T11:28:40;34.37;;;25.63;;
15130;SDS011;7666;50.920;4.628;2022-12-15T11:34:23;34.90;;;25.63;;
15130;SDS011;7666;50.920;4.628;2022-12-15T11:37:32;36.93;;;25.47;;
15130;SDS011;7666;50.920;4.628;2022-12-15T11:58:40;33.83;;;23.40;;
15130;SDS011;7666;50.920;4.628;2022-12-15T12:10:35;26.93;;;20.47;;
15130;SDS011;7666;50.920;4.628;2022-12-15T12:16:35;24.97;;;19.37;;
15130;SDS011;7666;50.920;4.628;2022-12-15T12:19:36;26.27;;;20.07;;
15130;SDS011;7666;50.920;4.628;2022-12-15T12:22:29;27.23;;;19.83;;
15130;SDS011;7666;50.920;4.628;2022-12-15T12:25:21;26.00;;;19.80;;
15130;SDS011;7666;50.920;4.628;2022-12-15T12:28:14;25.20;;;19.80;;
15130;SDS011;7666;50.920;4.628;2022-12-15T12:31:03;34.33;;;23.90;;
15130;SDS011;7666;50.920;4.628;2022-12-15T12:33:57;32.90;;;24.07;;
15130;SDS011;7666;50.920;4.628;2022-12-15T12:36:50;31.97;;;23.47;;
15130;SDS011;7666;50.920;4.628;2022-12-15T12:39:39;30.97;;;23.17;;
15130;SDS011;7666;50.920;4.628;2022-12-15T12:42:36;29.07;;;23.23;;
15130;SDS011;7666;50.920;4.628;2022-12-15T12:45:48;32.80;;;22.80;;
15130;SDS011;7666;50.920;4.628;2022-12-15T12:51:53;29.23;;;20.70;;
15130;SDS011;7666;50.920;4.628;2022-12-15T12:54:45;28.40;;;20.20;;
15130;SDS011;7666;50.920;4.628;2022-12-15T12:57:55;26.17;;;19.57;;
15130;SDS011;7666;50.920;4.628;2022-12-15T13:00:41;22.97;;;17.13;;
15130;SDS011;7666;50.920;4.628;2022-12-15T13:04:06;22.97;;;16.33;;
15130;SDS011;7666;50.920;4.628;2022-12-15T13:06:58;24.57;;;17.87;;
15130;SDS011;7666;50.920;4.628;2022-12-15T13:09:46;22.37;;;17.00;;
15130;SDS011;7666;50.920;4.628;2022-12-15T13:15:41;27.93;;;20.30;;
15130;SDS011;7666;50.920;4.628;2022-12-15T13:24:33;24.40;;;19.37;;
15130;SDS011;7666;50.920;4.628;2022-12-15T13:27:21;24.93;;;18.80;;
15130;SDS011;7666;50.920;4.628;2022-12-15T13:33:00;26.03;;;19.43;;
15130;SDS011;7666;50.920;4.628;2022-12-15T13:35:59;25.67;;;19.97;;
15130;SDS011;7666;50.920;4.628;2022-12-15T13:38:53;28.30;;;19.90;;
15130;SDS011;7666;50.920;4.628;2022-12-15T13:44:50;26.67;;;20.33;;
15130;SDS011;7666;50.920;4.628;2022-12-15T13:47:39;26.17;;;19.87;;
15130;SDS011;7666;50.920;4.628;2022-12-15T13:50:30;24.80;;;18.97;;
15130;SDS011;7666;50.920;4.628;2022-12-15T13:53:23;26.97;;;20.03;;
15130;SDS011;7666;50.920;4.628;2022-12-15T13:58:59;25.30;;;19.33;;
15130;SDS011;7666;50.920;4.628;2022-12-15T14:01:50;26.33;;;19.47;;
15130;SDS011;7666;50.920;4.628;2022-12-15T14:04:37;26.77;;;20.00;;
15130;SDS011;7666;50.920;4.628;2022-12-15T14:07:23;25.63;;;20.13;;
15130;SDS011;7666;50.920;4.628;2022-12-15T14:10:19;25.53;;;19.73;;
15130;SDS011;7666;50.920;4.628;2022-12-15T14:13:30;25.77;;;20.07;;
15130;SDS011;7666;50.920;4.628;2022-12-15T14:16:20;24.37;;;19.00;;
15130;SDS011;7666;50.920;4.628;2022-12-15T14:21:54;22.37;;;16.67;;
15130;SDS011;7666;50.920;4.628;2022-12-15T14:24:42;22.53;;;17.03;;
15130;SDS011;7666;50.920;4.628;2022-12-15T14:27:31;22.33;;;17.13;;
15130;SDS011;7666;50.920;4.628;2022-12-15T14:33:14;24.27;;;17.03;;
15130;SDS011;7666;50.920;4.628;2022-12-15T14:36:00;21.83;;;17.17;;
15130;SDS011;7666;50.920;4.628;2022-12-15T14:38:52;25.37;;;18.83;;
15130;SDS011;7666;50.920;4.628;2022-12-15T14:41:47;25.03;;;19.10;;
15130;SDS011;7666;50.920;4.628;2022-12-15T14:44:38;29.17;;;19.83;;
15130;SDS011;7666;50.920;4.628;2022-12-15T14:47:31;29.93;;;19.87;;
15130;SDS011;7666;50.920;4.628;2022-12-15T14:50:20;28.60;;;19.40;;
15130;SDS011;7666;50.920;4.628;2022-12-15T14:53:12;29.47;;;19.40;;
15130;SDS011;7666;50.920;4.628;2022-12-15T14:56:22;33.10;;;20.07;;
15130;SDS011;7666;50.920;4.628;2022-12-15T14:59:17;40.23;;;21.00;;
15130;SDS011;7666;50.920;4.628;2022-12-15T15:05:04;33.27;;;21.50;;
15130;SDS011;7666;50.920;4.628;2022-12-15T15:08:11;29.00;;;21.37;;
15130;SDS011;7666;50.920;4.628;2022-12-15T15:11:01;31.70;;;21.30;;
15130;SDS011;7666;50.920;4.628;2022-12-15T15:14:04;33.67;;;22.40;;
15130;SDS011;7666;50.920;4.628;2022-12-15T15:17:00;32.57;;;21.70;;
15130;SDS011;7666;50.920;4.628;2022-12-15T15:19:55;30.40;;;22.23;;
15130;SDS011;7666;50.920;4.628;2022-12-15T15:22:44;31.67;;;20.57;;
15130;SDS011;7666;50.920;4.628;2022-12-15T15:34:08;28.07;;;18.93;;
15130;SDS011;7666;50.920;4.628;2022-12-15T15:36:55;30.33;;;19.60;;
15130;SDS011;7666;50.920;4.628;2022-12-15T15:39:41;27.30;;;20.07;;
15130;SDS011;7666;50.920;4.628;2022-12-15T15:42:27;26.63;;;19.57;;
15130;SDS011;7666;50.920;4.628;2022-12-15T15:45:13;28.40;;;20.87;;
15130;SDS011;7666;50.920;4.628;2022-12-15T15:47:59;33.07;;;19.83;;
15130;SDS011;7666;50.920;4.628;2022-12-15T15:50:45;32.93;;;20.33;;
15130;SDS011;7666;50.920;4.628;2022-12-15T15:53:32;29.23;;;19.90;;
15130;SDS011;7666;50.920;4.628;2022-12-15T15:56:19;28.57;;;19.27;;
15130;SDS011;7666;50.920;4.628;2022-12-15T15:59:16;29.13;;;19.77;;
15130;SDS011;7666;50.920;4.628;2022-12-15T16:02:05;28.07;;;20.07;;
15130;SDS011;7666;50.920;4.628;2022-12-15T16:04:51;31.70;;;20.90;;
15130;SDS011;7666;50.920;4.628;2022-12-15T16:07:37;26.07;;;19.57;;
15130;SDS011;7666;50.920;4.628;2022-12-15T16:10:23;27.60;;;19.63;;
15130;SDS011;7666;50.920;4.628;2022-12-15T16:13:09;30.57;;;20.20;;
15130;SDS011;7666;50.920;4.628;2022-12-15T16:15:55;28.67;;;19.53;;
15130;SDS011;7666;50.920;4.628;2022-12-15T16:18:42;28.30;;;20.60;;
15130;SDS011;7666;50.920;4.628;2022-12-15T16:21:27;30.87;;;21.70;;
15130;SDS011;7666;50.920;4.628;2022-12-15T16:24:15;36.70;;;22.03;;
15130;SDS011;7666;50.920;4.628;2022-12-15T16:27:03;29.37;;;19.23;;
15130;SDS011;7666;50.920;4.628;2022-12-15T16:29:49;27.87;;;20.97;;
15130;SDS011;7666;50.920;4.628;2022-12-15T16:32:35;29.03;;;21.80;;
15130;SDS011;7666;50.920;4.628;2022-12-15T16:35:23;30.10;;;21.67;;
15130;SDS011;7666;50.920;4.628;2022-12-15T16:38:15;30.77;;;22.37;;
15130;SDS011;7666;50.920;4.628;2022-12-15T16:41:14;28.07;;;20.50;;
15130;SDS011;7666;50.920;4.628;2022-12-15T16:44:01;26.27;;;19.77;;
15130;SDS011;7666;50.920;4.628;2022-12-15T16:46:47;28.57;;;20.50;;
15130;SDS011;7666;50.920;4.628;2022-12-15T16:49:33;29.37;;;20.07;;
15130;SDS011;7666;50.920;4.628;2022-12-15T16:52:19;29.50;;;20.43;;
15130;SDS011;7666;50.920;4.628;2022-12-15T16:55:05;33.40;;;20.40;;
15130;SDS011;7666;50.920;4.628;2022-12-15T16:58:14;27.90;;;20.10;;
15130;SDS011;7666;50.920;4.628;2022-12-15T17:01:01;36.70;;;22.87;;
15130;SDS011;7666;50.920;4.628;2022-12-15T17:03:48;32.93;;;23.53;;
15130;SDS011;7666;50.920;4.628;2022-12-15T17:06:34;28.27;;;20.37;;
15130;SDS011;7666;50.920;4.628;2022-12-15T17:09:21;26.63;;;20.73;;
15130;SDS011;7666;50.920;4.628;2022-12-15T17:12:11;29.90;;;21.27;;
15130;SDS011;7666;50.920;4.628;2022-12-15T17:14:59;32.73;;;21.30;;
15130;SDS011;7666;50.920;4.628;2022-12-15T17:17:46;40.43;;;22.87;;
15130;SDS011;7666;50.920;4.628;2022-12-15T17:20:33;28.90;;;21.73;;
15130;SDS011;7666;50.920;4.628;2022-12-15T17:23:19;37.17;;;25.30;;
15130;SDS011;7666;50.920;4.628;2022-12-15T17:26:08;32.87;;;22.70;;
15130;SDS011;7666;50.920;4.628;2022-12-15T17:29:08;31.73;;;23.60;;
15130;SDS011;7666;50.920;4.628;2022-12-15T17:32:00;34.93;;;24.23;;
15130;SDS011;7666;50.920;4.628;2022-12-15T17:34:46;36.83;;;23.30;;
15130;SDS011;7666;50.920;4.628;2022-12-15T17:37:32;38.43;;;23.70;;
15130;SDS011;7666;50.920;4.628;2022-12-15T17:40:19;34.00;;;22.80;;
15130;SDS011;7666;50.920;4.628;2022-12-15T17:43:10;27.67;;;20.97;;
15130;SDS011;7666;50.920;4.628;2022-12-15T17:46:01;29.73;;;20.10;;
15130;SDS011;7666;50.920;4.628;2022-12-15T17:48:47;33.93;;;22.93;;
15130;SDS011;7666;50.920;4.628;2022-12-15T17:51:33;34.47;;;22.87;;
15130;SDS011;7666;50.920;4.628;2022-12-15T17:54:19;34.93;;;22.87;;
15130;SDS011;7666;50.920;4.628;2022-12-15T17:57:07;32.23;;;22.93;;
15130;SDS011;7666;50.920;4.628;2022-12-15T17:59:56;30.23;;;22.10;;
15130;SDS011;7666;50.920;4.628;2022-12-15T18:02:42;31.80;;;22.60;;
15130;SDS011;7666;50.920;4.628;2022-12-15T18:05:29;30.10;;;22.77;;
15130;SDS011;7666;50.920;4.628;2022-12-15T18:08:16;30.60;;;22.10;;
15130;SDS011;7666;50.920;4.628;2022-12-15T18:11:08;29.40;;;20.30;;
15130;SDS011;7666;50.920;4.628;2022-12-15T18:13:59;30.63;;;21.83;;
15130;SDS011;7666;50.920;4.628;2022-12-15T18:16:45;27.70;;;21.13;;
15130;SDS011;7666;50.920;4.628;2022-12-15T18:19:31;28.27;;;21.67;;
15130;SDS011;7666;50.920;4.628;2022-12-15T18:22:19;29.27;;;21.30;;
15130;SDS011;7666;50.920;4.628;2022-12-15T18:28:28;30.03;;;20.60;;
15130;SDS011;7666;50.920;4.628;2022-12-15T18:31:26;30.90;;;20.90;;
15130;SDS011;7666;50.920;4.628;2022-12-15T18:34:15;29.13;;;20.50;;
15130;SDS011;7666;50.920;4.628;2022-12-15T18:37:08;32.50;;;20.53;;
15130;SDS011;7666;50.920;4.628;2022-12-15T18:40:02;29.30;;;21.17;;
15130;SDS011;7666;50.920;4.628;2022-12-15T18:42:49;29.17;;;21.30;;
15130;SDS011;7666;50.920;4.628;2022-12-15T18:45:35;27.83;;;21.53;;
15130;SDS011;7666;50.920;4.628;2022-12-15T18:48:25;29.50;;;21.47;;